createdAt,value
2022-09-26T00:00:07.428Z,2.83
2022-09-26T00:02:34.221Z,2.80
2022-09-26T00:05:00.923Z,2.83
2022-09-26T00:07:27.285Z,2.73
2022-09-26T00:09:55.627Z,2.97
2022-09-26T00:12:22.002Z,2.53
2022-09-26T00:14:48.344Z,3.07
2022-09-26T00:17:14.773Z,3.10
2022-09-26T00:19:41.162Z,3.07
2022-09-26T00:22:07.505Z,3.23
2022-09-26T00:24:33.938Z,3.07
2022-09-26T00:27:00.339Z,3.00
2022-09-26T00:29:26.723Z,3.07
2022-09-26T00:31:53.869Z,2.80
2022-09-26T00:34:20.546Z,3.20
2022-09-26T00:36:46.979Z,3.30
2022-09-26T00:39:14.517Z,3.43
2022-09-26T00:41:41.454Z,3.37
2022-09-26T00:44:26.737Z,3.23
2022-09-26T00:46:53.176Z,3.10
2022-09-26T00:49:38.153Z,2.93
2022-09-26T00:52:12.824Z,3.27
2022-09-26T00:54:41.451Z,2.87
2022-09-26T00:57:12.435Z,3.20
2022-09-26T00:59:41.678Z,3.10
2022-09-26T01:02:08.533Z,3.30
2022-09-26T01:04:36.650Z,2.87
2022-09-26T01:07:05.318Z,3.53
2022-09-26T01:09:32.311Z,4.03
2022-09-26T01:12:00.433Z,2.70
2022-09-26T01:14:27.389Z,3.43
2022-09-26T01:16:54.632Z,3.63
2022-09-26T01:19:25.393Z,3.67
2022-09-26T01:22:10.535Z,3.80
2022-09-26T01:24:48.331Z,3.43
2022-09-26T01:27:30.172Z,3.43
2022-09-26T01:30:07.446Z,3.40
2022-09-26T01:32:49.037Z,3.60
2022-09-26T01:35:38.678Z,3.43
2022-09-26T01:38:26.831Z,3.87
2022-09-26T01:41:00.341Z,3.87
2022-09-26T01:43:33.792Z,4.10
2022-09-26T01:46:00.270Z,4.13
2022-09-26T01:48:39.591Z,3.93
2022-09-26T01:51:06.067Z,4.27
2022-09-26T01:53:50.795Z,3.67
2022-09-26T01:56:20.019Z,3.80
2022-09-26T01:58:58.752Z,3.90
2022-09-26T02:01:27.823Z,4.10
2022-09-26T02:03:56.745Z,3.83
2022-09-26T02:06:25.187Z,3.90
2022-09-26T02:08:56.846Z,4.70
2022-09-26T02:11:25.146Z,4.93
2022-09-26T02:13:58.823Z,4.53
2022-09-26T02:16:32.012Z,4.70
2022-09-26T02:19:03.088Z,5.00
2022-09-26T02:21:32.348Z,4.80
2022-09-26T02:23:58.864Z,5.00
2022-09-26T02:26:25.330Z,5.20
2022-09-26T02:28:51.805Z,5.10
2022-09-26T02:31:21.267Z,5.37
2022-09-26T02:33:50.075Z,5.10
2022-09-26T02:36:17.044Z,5.30
2022-09-26T02:38:43.402Z,5.50
2022-09-26T02:41:23.391Z,5.67
2022-09-26T02:44:04.737Z,5.40
2022-09-26T02:46:41.230Z,5.20
2022-09-26T02:49:16.251Z,5.60
2022-09-26T02:51:45.509Z,5.93
2022-09-26T02:54:19.101Z,6.13
2022-09-26T02:56:46.161Z,5.90
2022-09-26T02:59:20.699Z,5.50
2022-09-26T03:01:54.903Z,5.07
2022-09-26T03:04:43.129Z,5.13
2022-09-26T03:07:11.889Z,4.97
2022-09-26T03:09:40.053Z,4.90
2022-09-26T03:12:08.107Z,5.20
2022-09-26T03:14:35.811Z,5.77
2022-09-26T03:17:03.259Z,4.90
2022-09-26T03:19:33.407Z,5.63
2022-09-26T03:22:00.068Z,5.40
2022-09-26T03:24:26.920Z,5.90
2022-09-26T03:26:53.420Z,5.83
2022-09-26T03:29:20.557Z,6.60
2022-09-26T03:31:50.285Z,5.77
2022-09-26T03:34:17.590Z,5.80
2022-09-26T03:36:45.992Z,5.77
2022-09-26T03:39:12.606Z,6.03
2022-09-26T03:41:39.076Z,6.40
2022-09-26T03:44:05.491Z,7.53
2022-09-26T03:46:35.002Z,7.10
2022-09-26T03:49:04.101Z,7.03
2022-09-26T03:51:30.490Z,6.30
2022-09-26T03:53:56.857Z,5.57
2022-09-26T03:56:23.579Z,5.27
2022-09-26T03:58:50.027Z,5.97
2022-09-26T04:01:17.745Z,5.40
2022-09-26T04:03:50.026Z,5.50
2022-09-26T04:06:20.625Z,5.47
2022-09-26T04:08:48.358Z,5.90
2022-09-26T04:11:15.684Z,5.17
2022-09-26T04:13:51.784Z,5.33
2022-09-26T04:16:20.298Z,5.03
2022-09-26T04:18:47.236Z,4.87
2022-09-26T04:21:16.220Z,5.90
2022-09-26T04:23:43.615Z,5.47
2022-09-26T04:26:18.730Z,5.07
2022-09-26T04:28:49.627Z,4.77
2022-09-26T04:31:16.110Z,4.90
2022-09-26T04:33:42.523Z,5.20
2022-09-26T04:36:10.284Z,4.97
2022-09-26T04:38:37.111Z,4.60
2022-09-26T04:41:07.892Z,4.70
2022-09-26T04:43:35.056Z,4.87
2022-09-26T04:46:02.043Z,4.80
2022-09-26T04:48:28.731Z,4.83
2022-09-26T04:50:55.174Z,4.97
2022-09-26T04:53:21.581Z,5.07
2022-09-26T04:55:48.654Z,4.83
2022-09-26T04:58:16.320Z,4.53
2022-09-26T05:00:45.582Z,4.83
2022-09-26T05:03:13.671Z,4.90
2022-09-26T05:05:54.394Z,4.80
2022-09-26T05:08:21.071Z,5.57
2022-09-26T05:10:52.541Z,5.30
2022-09-26T05:13:19.057Z,5.47
2022-09-26T05:15:45.498Z,5.50
2022-09-26T05:18:11.918Z,5.70
2022-09-26T05:20:38.547Z,5.60
2022-09-26T05:23:06.533Z,6.17
2022-09-26T05:25:58.675Z,5.90
2022-09-26T05:28:26.619Z,6.30
2022-09-26T05:30:53.049Z,6.67
2022-09-26T05:33:20.984Z,7.30
2022-09-26T05:35:53.707Z,6.30
2022-09-26T05:38:20.324Z,7.27
2022-09-26T05:40:59.240Z,6.40
2022-09-26T05:43:27.519Z,5.60
2022-09-26T05:46:00.760Z,5.57
2022-09-26T05:48:28.275Z,5.30
2022-09-26T05:50:55.020Z,4.70
2022-09-26T05:53:21.844Z,4.40
2022-09-26T05:55:52.343Z,4.10
2022-09-26T05:58:21.250Z,4.17
2022-09-26T06:00:48.025Z,4.23
2022-09-26T06:03:15.535Z,4.33
2022-09-26T06:05:42.517Z,3.50
2022-09-26T06:08:09.948Z,3.70
2022-09-26T06:10:37.781Z,3.83
2022-09-26T06:13:04.738Z,3.67
2022-09-26T06:15:31.441Z,3.40
2022-09-26T06:18:01.412Z,3.50
2022-09-26T06:20:27.932Z,4.03
2022-09-26T06:22:55.330Z,3.07
2022-09-26T06:25:22.019Z,3.47
2022-09-26T06:27:48.918Z,3.60
2022-09-26T06:30:16.011Z,3.60
2022-09-26T06:32:42.496Z,3.50
2022-09-26T06:35:08.991Z,3.20
2022-09-26T06:37:35.573Z,3.40
2022-09-26T06:40:02.203Z,3.70
2022-09-26T06:42:33.013Z,3.23
2022-09-26T06:44:59.414Z,3.27
2022-09-26T06:47:28.460Z,3.00
2022-09-26T06:49:54.837Z,2.90
2022-09-26T06:52:21.260Z,3.10
2022-09-26T06:54:47.933Z,3.27
2022-09-26T06:57:15.336Z,3.10
2022-09-26T06:59:41.895Z,2.83
2022-09-26T07:02:08.853Z,2.93
2022-09-26T07:04:35.944Z,2.80
2022-09-26T07:07:02.383Z,2.80
2022-09-26T07:09:28.757Z,3.33
2022-09-26T07:12:14.676Z,3.17
2022-09-26T07:14:42.497Z,3.43
2022-09-26T07:17:10.683Z,5.00
2022-09-26T07:19:37.187Z,3.93
2022-09-26T07:22:03.586Z,3.17
2022-09-26T07:24:30.794Z,2.70
2022-09-26T07:26:57.174Z,3.00
2022-09-26T07:29:23.559Z,2.50
2022-09-26T07:31:50.608Z,3.20
2022-09-26T07:34:18.538Z,2.90
2022-09-26T07:36:47.510Z,2.70
2022-09-26T07:39:14.134Z,2.93
2022-09-26T07:41:40.754Z,3.37
2022-09-26T07:47:12.406Z,3.10
2022-09-26T07:49:57.254Z,3.13
2022-09-26T07:52:23.856Z,3.20
2022-09-26T07:54:50.304Z,3.17
2022-09-26T07:57:17.117Z,3.77
2022-09-26T07:59:43.498Z,3.50
2022-09-26T08:02:35.807Z,3.30
2022-09-26T08:05:03.580Z,3.07
2022-09-26T08:07:30.308Z,2.87
2022-09-26T08:09:57.159Z,3.40
2022-09-26T08:12:23.878Z,3.17
2022-09-26T08:14:50.350Z,2.87
2022-09-26T08:17:17.230Z,2.60
2022-09-26T08:19:43.797Z,2.33
2022-09-26T08:22:11.289Z,1.87
2022-09-26T08:24:38.973Z,2.20
2022-09-26T08:27:05.535Z,2.20
2022-09-26T08:29:35.073Z,1.80
2022-09-26T08:32:04.242Z,2.27
2022-09-26T08:34:32.220Z,2.40
2022-09-26T08:36:58.861Z,2.10
2022-09-26T08:39:27.229Z,1.80
2022-09-26T08:42:18.089Z,1.73
2022-09-26T08:45:02.390Z,1.93
2022-09-26T08:47:40.311Z,1.67
2022-09-26T08:50:09.964Z,1.90
2022-09-26T08:52:43.872Z,1.47
2022-09-26T08:55:19.455Z,1.80
2022-09-26T08:58:05.671Z,2.10
2022-09-26T09:00:33.303Z,1.80
2022-09-26T09:03:06.076Z,1.80
2022-09-26T09:05:35.220Z,1.67
2022-09-26T09:08:07.982Z,1.80
2022-09-26T09:10:37.611Z,1.93
2022-09-26T09:13:22.947Z,1.80
2022-09-26T09:15:56.940Z,2.00
2022-09-26T09:18:34.939Z,1.93
2022-09-26T09:21:10.469Z,1.80
2022-09-26T09:23:36.898Z,1.30
2022-09-26T09:29:18.985Z,1.87
2022-09-26T09:31:46.640Z,1.90
2022-09-26T09:34:17.198Z,1.83
2022-09-26T09:36:47.503Z,1.73
2022-09-26T09:39:20.996Z,2.00
2022-09-26T09:41:50.284Z,2.20
2022-09-26T09:44:40.084Z,2.00
2022-09-26T09:47:11.372Z,2.43
2022-09-26T09:49:37.976Z,2.20
2022-09-26T09:52:27.501Z,2.07
2022-09-26T09:55:09.943Z,2.27
2022-09-26T09:57:39.401Z,2.47
2022-09-26T10:00:19.809Z,2.77
2022-09-26T10:03:04.266Z,1.93
2022-09-26T10:05:44.279Z,2.60
2022-09-26T10:08:11.946Z,2.10
2022-09-26T10:10:43.055Z,2.10
2022-09-26T10:13:11.123Z,2.37
2022-09-26T10:15:54.485Z,2.20
2022-09-26T10:18:26.177Z,2.27
2022-09-26T10:20:54.834Z,1.80
2022-09-26T10:23:33.582Z,1.80
2022-09-26T10:26:03.551Z,2.30
2022-09-26T10:28:35.846Z,2.60
2022-09-26T10:31:04.903Z,2.53
2022-09-26T10:33:37.023Z,2.67
2022-09-26T10:36:09.190Z,2.63
2022-09-26T10:38:55.631Z,2.47
2022-09-26T10:41:23.289Z,2.00
2022-09-26T10:43:54.552Z,2.40
2022-09-26T10:46:22.706Z,2.80
2022-09-26T10:48:51.774Z,2.23
2022-09-26T10:51:20.855Z,2.10
2022-09-26T10:53:48.654Z,2.50
2022-09-26T10:56:21.673Z,2.17
2022-09-26T10:58:48.125Z,2.20
2022-09-26T11:01:21.144Z,2.10
2022-09-26T11:03:49.662Z,2.27
2022-09-26T11:06:24.350Z,2.43
2022-09-26T11:08:52.699Z,2.07
2022-09-26T11:11:21.378Z,2.10
2022-09-26T11:14:08.610Z,2.27
2022-09-26T11:16:44.146Z,2.43
2022-09-26T11:19:19.721Z,2.00
2022-09-26T11:21:48.911Z,1.90
2022-09-26T11:24:37.397Z,2.50
2022-09-26T11:27:16.034Z,2.23
2022-09-26T11:29:45.057Z,2.20
2022-09-26T11:32:13.878Z,2.40
2022-09-26T11:34:41.007Z,2.43
2022-09-26T11:37:14.807Z,2.00
2022-09-26T11:40:00.038Z,1.63
2022-09-26T11:42:44.606Z,1.20
2022-09-26T11:45:20.547Z,1.40
2022-09-26T11:47:55.994Z,1.77
2022-09-26T11:50:48.839Z,1.50
2022-09-26T11:53:16.084Z,1.47
2022-09-26T11:56:02.261Z,1.50
2022-09-26T11:58:47.517Z,1.63
2022-09-26T12:01:28.331Z,1.60
2022-09-26T12:04:05.861Z,1.50
2022-09-26T12:06:48.167Z,1.83
2022-09-26T12:09:20.912Z,1.90
2022-09-26T12:11:53.229Z,1.73
2022-09-26T12:14:20.029Z,1.47
2022-09-26T12:16:46.647Z,1.77
2022-09-26T12:19:16.524Z,1.60
2022-09-26T12:22:16.838Z,1.60
2022-09-26T12:24:56.099Z,1.40
2022-09-26T12:27:28.448Z,1.50
2022-09-26T12:30:06.096Z,1.60
2022-09-26T12:32:55.590Z,1.47
2022-09-26T12:35:44.110Z,1.83
2022-09-26T12:38:16.860Z,1.50
2022-09-26T12:40:46.616Z,1.87
2022-09-26T12:43:24.438Z,1.70
2022-09-26T12:46:14.266Z,1.63
2022-09-26T12:48:43.908Z,1.90
2022-09-26T12:51:29.990Z,2.00
2022-09-26T12:53:59.779Z,1.80
2022-09-26T12:56:55.764Z,1.50
2022-09-26T12:59:38.751Z,2.00
2022-09-26T13:02:08.287Z,1.57
2022-09-26T13:04:53.603Z,1.57
2022-09-26T13:07:26.076Z,1.43
2022-09-26T13:10:02.077Z,1.90
2022-09-26T13:12:40.545Z,1.97
2022-09-26T13:15:07.091Z,1.90
2022-09-26T13:17:36.056Z,2.00
2022-09-26T13:20:14.978Z,2.20
2022-09-26T13:22:44.406Z,2.10
2022-09-26T13:25:10.789Z,2.13
2022-09-26T13:27:42.688Z,1.80
2022-09-26T13:30:26.235Z,2.20
2022-09-26T13:33:03.494Z,1.70
2022-09-26T13:35:31.897Z,2.30
2022-09-26T13:38:16.553Z,1.90
2022-09-26T13:40:46.209Z,2.00
2022-09-26T13:43:29.143Z,2.20
2022-09-26T13:46:02.149Z,2.33
2022-09-26T13:48:49.973Z,1.90
2022-09-26T13:51:19.942Z,1.80
2022-09-26T13:53:51.151Z,2.40
2022-09-26T13:56:36.271Z,1.90
2022-09-26T13:59:26.252Z,1.67
2022-09-26T14:02:11.559Z,1.90
2022-09-26T14:04:38.135Z,2.00
2022-09-26T14:07:24.688Z,2.00
2022-09-26T14:10:07.813Z,1.87
2022-09-26T14:12:55.178Z,1.73
2022-09-26T14:15:34.442Z,1.80
2022-09-26T14:18:07.088Z,2.03
2022-09-26T14:20:38.431Z,2.37
2022-09-26T14:23:04.830Z,2.37
2022-09-26T14:25:47.037Z,2.67
2022-09-26T14:28:19.605Z,2.57
2022-09-26T14:31:05.119Z,2.20
2022-09-26T14:33:33.222Z,2.80
2022-09-26T14:36:18.699Z,2.20
2022-09-26T14:38:48.619Z,2.40
2022-09-26T14:41:19.241Z,2.60
2022-09-26T14:43:46.639Z,2.97
2022-09-26T14:46:18.342Z,2.70
2022-09-26T14:48:45.185Z,2.80
2022-09-26T14:51:11.569Z,2.90
2022-09-26T14:53:38.533Z,3.13
2022-09-26T14:56:06.225Z,3.27
2022-09-26T14:58:46.231Z,2.80
2022-09-26T15:01:18.149Z,2.83
2022-09-26T15:03:53.759Z,2.33
2022-09-26T15:06:24.116Z,2.73
2022-09-26T15:08:50.734Z,2.73
2022-09-26T15:11:28.666Z,3.03
2022-09-26T15:13:55.493Z,2.80
2022-09-26T15:16:29.314Z,3.27
2022-09-26T15:19:01.108Z,2.70
2022-09-26T15:21:36.807Z,2.77
2022-09-26T15:24:04.813Z,2.80
2022-09-26T15:26:33.181Z,2.50
2022-09-26T15:29:00.264Z,2.70
2022-09-26T15:31:37.078Z,3.00
2022-09-26T15:34:12.707Z,3.13
2022-09-26T15:36:40.194Z,3.03
2022-09-26T15:39:26.748Z,2.60
2022-09-26T15:42:12.177Z,2.40
2022-09-26T15:44:45.943Z,2.60
2022-09-26T15:47:24.533Z,2.67
2022-09-26T15:50:11.852Z,2.43
2022-09-26T15:52:49.155Z,2.67
2022-09-26T15:55:16.743Z,3.10
2022-09-26T15:57:44.095Z,2.80
2022-09-26T16:00:13.612Z,2.40
2022-09-26T16:02:40.289Z,2.77
2022-09-26T16:05:12.069Z,3.23
2022-09-26T16:07:41.548Z,3.03
2022-09-26T16:10:37.246Z,3.00
2022-09-26T16:13:04.061Z,2.77
2022-09-26T16:15:31.138Z,2.47
2022-09-26T16:17:58.251Z,2.97
2022-09-26T16:20:29.355Z,2.80
2022-09-26T16:23:00.384Z,2.63
2022-09-26T16:25:32.329Z,2.90
2022-09-26T16:28:01.013Z,2.80
2022-09-26T16:30:27.375Z,2.83
2022-09-26T16:33:00.030Z,3.00
2022-09-26T16:35:29.733Z,3.10
2022-09-26T16:38:16.693Z,3.43
2022-09-26T16:40:50.193Z,3.60
2022-09-26T16:43:27.265Z,3.80
2022-09-26T16:46:00.600Z,4.40
2022-09-26T16:48:32.825Z,4.20
2022-09-26T16:51:13.629Z,4.20
2022-09-26T16:53:40.104Z,4.37
2022-09-26T16:56:08.450Z,4.10
2022-09-26T16:58:35.000Z,4.30
2022-09-26T17:01:20.235Z,4.10
2022-09-26T17:03:47.348Z,4.20
2022-09-26T17:06:13.747Z,4.00
2022-09-26T17:08:40.165Z,4.40
2022-09-26T17:11:10.988Z,4.43
2022-09-26T17:13:39.993Z,4.60
2022-09-26T17:16:07.563Z,4.07
2022-09-26T17:18:35.021Z,4.50
2022-09-26T17:21:01.641Z,4.30
2022-09-26T17:23:40.575Z,3.67
2022-09-26T17:26:08.293Z,4.00
2022-09-26T17:28:39.786Z,4.30
2022-09-26T17:31:07.776Z,3.70
2022-09-26T17:33:37.155Z,4.00
2022-09-26T17:36:04.035Z,3.60
2022-09-26T17:38:30.522Z,3.50
2022-09-26T17:40:57.243Z,3.70
2022-09-26T17:43:23.763Z,3.47
2022-09-26T17:45:51.656Z,3.80
2022-09-26T17:48:18.157Z,3.80
2022-09-26T17:50:45.934Z,3.57
2022-09-26T17:53:20.615Z,3.47
2022-09-26T17:55:48.247Z,3.20
2022-09-26T17:58:15.048Z,3.10
2022-09-26T18:00:43.175Z,2.67
2022-09-26T18:03:18.807Z,3.20
2022-09-26T18:05:46.391Z,3.43
2022-09-26T18:08:29.748Z,3.90
2022-09-26T18:10:58.321Z,3.97
2022-09-26T18:13:31.653Z,3.10
2022-09-26T18:15:58.819Z,2.90
2022-09-26T18:18:27.913Z,2.70
2022-09-26T18:20:55.126Z,3.07
2022-09-26T18:23:30.056Z,3.10
2022-09-26T18:25:58.981Z,2.70
2022-09-26T18:28:28.025Z,2.23
2022-09-26T18:30:58.158Z,1.90
2022-09-26T18:33:27.878Z,2.20
2022-09-26T18:35:54.573Z,1.70
2022-09-26T18:38:22.183Z,1.87
2022-09-26T18:40:54.804Z,2.00
2022-09-26T18:43:25.258Z,1.77
2022-09-26T18:45:51.929Z,2.00
2022-09-26T18:48:26.124Z,2.70
2022-09-26T18:50:53.554Z,4.13
2022-09-26T18:53:21.533Z,4.40
2022-09-26T18:56:06.633Z,4.57
2022-09-26T18:58:33.969Z,3.97
2022-09-26T19:01:05.697Z,3.70
2022-09-26T19:03:36.815Z,3.70
2022-09-26T19:06:05.914Z,4.00
2022-09-26T19:08:36.315Z,3.93
2022-09-26T19:11:07.951Z,3.43
2022-09-26T19:13:34.389Z,3.37
2022-09-26T19:16:00.868Z,3.40
2022-09-26T19:18:27.331Z,4.13
2022-09-26T19:20:54.008Z,3.13
2022-09-26T19:23:21.026Z,3.23
2022-09-26T19:25:47.404Z,2.70
2022-09-26T19:28:20.982Z,2.87
2022-09-26T19:30:47.442Z,2.77
2022-09-26T19:33:13.838Z,2.60
2022-09-26T19:35:40.745Z,2.60
2022-09-26T19:38:16.169Z,2.60
2022-09-26T19:40:47.730Z,3.40
2022-09-26T19:43:15.154Z,2.90
2022-09-26T19:45:41.707Z,3.13
2022-09-26T19:48:11.190Z,3.83
2022-09-26T19:50:38.249Z,4.13
2022-09-26T19:53:12.865Z,5.10
2022-09-26T19:55:39.564Z,5.00
2022-09-26T19:58:13.416Z,6.07
2022-09-26T20:00:43.521Z,5.53
2022-09-26T20:03:30.258Z,5.30
2022-09-26T20:05:56.730Z,4.67
2022-09-26T20:08:25.053Z,4.47
2022-09-26T20:10:52.215Z,4.97
2022-09-26T20:13:18.903Z,4.00
2022-09-26T20:15:46.178Z,3.80
2022-09-26T20:18:13.756Z,3.90
2022-09-26T20:20:40.306Z,3.77
2022-09-26T20:23:13.317Z,3.47
2022-09-26T20:25:39.774Z,3.50
2022-09-26T20:28:06.175Z,3.90
2022-09-26T20:30:51.150Z,3.97
2022-09-26T20:33:18.193Z,3.93
2022-09-26T20:35:46.079Z,4.10
2022-09-26T20:38:33.583Z,3.87
2022-09-26T20:41:12.202Z,3.53
2022-09-26T20:43:39.806Z,5.13
2022-09-26T20:46:07.848Z,4.57
2022-09-26T20:48:35.050Z,4.80
2022-09-26T20:51:02.210Z,4.83
2022-09-26T20:53:28.638Z,4.60
2022-09-26T20:55:58.106Z,4.83
2022-09-26T20:58:24.857Z,5.30
2022-09-26T21:00:53.229Z,5.53
2022-09-26T21:03:22.124Z,6.33
2022-09-26T21:05:48.576Z,5.27
2022-09-26T21:08:26.138Z,5.47
2022-09-26T21:10:52.673Z,5.73
2022-09-26T21:13:19.123Z,6.33
2022-09-26T21:15:45.585Z,6.20
2022-09-26T21:18:24.957Z,6.53
2022-09-26T21:20:51.991Z,5.80
2022-09-26T21:23:19.179Z,6.10
2022-09-26T21:25:45.590Z,6.73
2022-09-26T21:28:22.673Z,6.23
2022-09-26T21:30:49.650Z,6.83
2022-09-26T21:33:16.155Z,6.93
2022-09-26T21:35:42.609Z,7.20
2022-09-26T21:38:09.017Z,7.67
2022-09-26T21:40:37.374Z,7.73
2022-09-26T21:43:06.578Z,7.63
2022-09-26T21:45:33.548Z,7.50
2022-09-26T21:48:00.154Z,7.93
2022-09-26T21:50:28.040Z,8.13
2022-09-26T21:52:59.907Z,7.97
2022-09-26T21:55:29.895Z,8.63
2022-09-26T21:57:59.981Z,8.93
2022-09-26T22:00:26.630Z,9.13
2022-09-26T22:02:54.098Z,8.93
2022-09-26T22:05:22.354Z,8.90
2022-09-26T22:07:48.817Z,7.40
2022-09-26T22:10:15.870Z,7.53
2022-09-26T22:12:42.274Z,8.23
2022-09-26T22:15:09.409Z,8.70
2022-09-26T22:17:35.880Z,8.13
2022-09-26T22:20:02.488Z,7.47
2022-09-26T22:22:28.963Z,7.17
2022-09-26T22:24:55.441Z,6.37
2022-09-26T22:27:21.930Z,5.60
2022-09-26T22:29:48.487Z,5.00
2022-09-26T22:32:14.896Z,4.83
2022-09-26T22:34:41.694Z,4.80
2022-09-26T22:37:08.255Z,4.40
2022-09-26T22:39:34.660Z,4.53
2022-09-26T22:42:01.077Z,4.10
2022-09-26T22:44:27.459Z,3.40
2022-09-26T22:46:53.914Z,3.20
2022-09-26T22:49:20.776Z,2.90
2022-09-26T22:51:47.515Z,2.37
2022-09-26T22:54:13.955Z,2.60
2022-09-26T22:56:40.358Z,2.27
2022-09-26T22:59:07.127Z,2.30
2022-09-26T23:01:33.626Z,1.93
2022-09-26T23:04:00.513Z,2.13
2022-09-26T23:06:27.420Z,2.03
2022-09-26T23:08:54.187Z,1.90
2022-09-26T23:11:20.601Z,2.03
2022-09-26T23:13:47.379Z,2.07
2022-09-26T23:16:15.020Z,1.67
2022-09-26T23:18:41.743Z,1.30
2022-09-26T23:21:12.738Z,2.30
2022-09-26T23:23:39.781Z,2.07
2022-09-26T23:26:06.888Z,2.30
2022-09-26T23:28:33.847Z,1.97
2022-09-26T23:31:10.442Z,2.03
2022-09-26T23:33:37.463Z,1.60
2022-09-26T23:36:04.303Z,1.87
2022-09-26T23:38:30.744Z,1.50
2022-09-26T23:40:57.569Z,2.13
2022-09-26T23:43:24.006Z,2.23
2022-09-26T23:45:50.457Z,1.60
2022-09-26T23:48:17.322Z,2.00
2022-09-26T23:50:44.452Z,1.70
2022-09-26T23:53:11.317Z,1.87
2022-09-26T23:55:37.802Z,1.87
2022-09-26T23:58:04.279Z,1.70
